Terminal Aerodrome Forecast
Issued by NWS

Home | Current Version | Previous Version | Text Only | Print | Product List | Glossary On
Versions: 1 2 3 4 5 6 7 8 9 10 11 12 13 14 15 16
000
FTUS43 KMPX 052321
TAFAXN
TAF
KAXN 052321Z 0600/0624 13015G22KT P6SM SCT025 OVC060
     FM060400 13013KT P6SM BKN025 OVC050
     FM060800 12010KT P6SM VCSH OVC015
     FM061200 13014G20KT 5SM -RA BR SCT015 BKN025
     FM061900 12014G20KT 6SM -SHRA VCTS SCT025 OVC050CB=

USA.gov is the U.S. government's official web portal to all federal, state and local government web resources and services.